Time;durP1;ratioP1;P1;durP2;ratioP2;P2;SDS_P1;SDS_P2;PMS_P1;PMS_P2;Temp;Humidity;BMP_temperature;BMP_pressure;BME280_temperature;BME280_humidity;BME280_pressure;Samples;Min_cycle;Max_cycle;Signal;HPM_P1;HPM_P2
2023/08/11 00:01:07;;;;;;;12.55;7.22;;;16.80;99.90;;;;;;5011367;28;20268;-74
2023/08/11 00:03:33;;;;;;;14.43;7.80;;;16.80;99.90;;;;;;5008694;28;20209;-76
2023/08/11 00:05:58;;;;;;;12.57;7.47;;;16.80;99.90;;;;;;5002845;28;20208;-75
2023/08/11 00:08:25;;;;;;;14.20;9.05;;;16.70;99.90;;;;;;5026763;28;20216;-74
2023/08/11 00:10:52;;;;;;;9.82;6.32;;;16.70;99.90;;;;;;5009450;28;20312;-74
2023/08/11 00:13:17;;;;;;;11.57;7.45;;;16.70;99.90;;;;;;5010239;28;20209;-75
2023/08/11 00:15:43;;;;;;;10.70;6.85;;;16.70;99.90;;;;;;5009424;28;20723;-76
2023/08/11 00:18:09;;;;;;;14.18;7.43;;;16.70;99.90;;;;;;5022004;28;20217;-74
2023/08/11 00:20:36;;;;;;;14.05;6.78;;;16.70;99.90;;;;;;5003566;28;20296;-73
2023/08/11 00:23:03;;;;;;;10.77;6.45;;;16.70;99.90;;;;;;5009727;28;20705;-75
2023/08/11 00:25:29;;;;;;;7.90;5.20;;;16.70;99.90;;;;;;5004898;28;20192;-75
2023/08/11 00:27:54;;;;;;;10.95;5.28;;;16.60;99.90;;;;;;5004167;28;20189;-75
2023/08/11 00:30:20;;;;;;;10.65;6.00;;;16.70;99.90;;;;;;5003377;28;20270;-77
2023/08/11 00:32:46;;;;;;;14.88;7.55;;;16.70;99.90;;;;;;5025979;28;20722;-75
2023/08/11 00:35:11;;;;;;;8.18;5.30;;;16.70;99.90;;;;;;5008767;28;20209;-74
2023/08/11 00:37:37;;;;;;;10.52;5.60;;;16.70;99.90;;;;;;5009213;28;20669;-74
2023/08/11 00:40:06;;;;;;;11.43;5.25;;;16.60;99.90;;;;;;5008047;28;20170;-75
2023/08/11 00:42:32;;;;;;;10.95;5.32;;;16.60;99.90;;;;;;5006232;28;20217;-75
2023/08/11 00:44:59;;;;;;;11.80;5.40;;;16.70;99.90;;;;;;5009187;28;20215;-74
2023/08/11 00:47:25;;;;;;;9.75;5.78;;;16.70;99.90;;;;;;5008571;28;20239;-75
2023/08/11 00:49:51;;;;;;;7.18;4.45;;;16.70;99.90;;;;;;5008546;28;20209;-74
2023/08/11 00:52:18;;;;;;;8.60;4.53;;;16.60;99.90;;;;;;5009121;28;20595;-76
2023/08/11 00:54:44;;;;;;;8.82;4.70;;;16.60;99.90;;;;;;5008026;28;20326;-76
2023/08/11 00:57:10;;;;;;;8.48;4.00;;;16.60;99.90;;;;;;5007271;28;20706;-75
2023/08/11 00:59:36;;;;;;;8.18;4.10;;;16.50;99.90;;;;;;5006778;28;20228;-75
2023/08/11 01:02:02;;;;;;;7.80;3.60;;;16.50;99.90;;;;;;5009361;28;20695;-75
2023/08/11 01:04:27;;;;;;;9.23;3.92;;;16.50;99.90;;;;;;5009033;28;20200;-73
2023/08/11 01:07:11;;;;;;;5.97;4.10;;;16.50;99.90;;;;;;5003317;28;20185;-75
2023/08/11 01:09:54;;;;;;;6.57;4.20;;;16.50;99.90;;;;;;5001607;28;20206;-75
2023/08/11 01:12:37;;;;;;;6.50;3.75;;;16.50;99.90;;;;;;5009356;28;20305;-75
2023/08/11 01:15:22;;;;;;;8.70;3.90;;;16.50;99.90;;;;;;5006679;28;20596;-74
2023/08/11 01:17:49;;;;;;;5.97;3.88;;;16.50;99.90;;;;;;5007331;28;20707;-75
2023/08/11 01:20:16;;;;;;;6.40;3.75;;;16.50;99.90;;;;;;5005538;28;20596;-78
2023/08/11 01:22:46;;;;;;;7.85;3.97;;;16.40;99.90;;;;;;5005958;28;20621;-76
2023/08/11 01:25:12;;;;;;;8.60;3.90;;;16.40;99.90;;;;;;5009998;28;20181;-76
2023/08/11 01:27:45;;;;;;;8.80;4.13;;;16.40;99.90;;;;;;5010157;28;20201;-77
2023/08/11 01:30:12;;;;;;;9.73;3.78;;;16.40;99.90;;;;;;5009538;28;20213;-74
2023/08/11 01:32:38;;;;;;;7.60;3.72;;;16.50;99.90;;;;;;5007356;28;20263;-75
2023/08/11 01:35:09;;;;;;;5.88;3.17;;;16.40;99.90;;;;;;5009525;28;20559;-75
2023/08/11 01:37:35;;;;;;;7.15;3.70;;;16.40;99.90;;;;;;5009873;28;20185;-74
2023/08/11 01:40:01;;;;;;;6.40;3.28;;;16.40;99.90;;;;;;5009856;28;20176;-75
2023/08/11 01:42:26;;;;;;;9.07;3.92;;;16.40;99.90;;;;;;5004543;28;20225;-76
2023/08/11 01:44:52;;;;;;;6.70;3.33;;;16.30;99.90;;;;;;5017347;28;20209;-76
2023/08/11 01:47:19;;;;;;;4.55;3.45;;;16.30;99.90;;;;;;5000300;28;20579;-76
2023/08/11 01:49:47;;;;;;;6.32;3.30;;;16.20;99.90;;;;;;5001651;28;20181;-76
2023/08/11 01:52:13;;;;;;;7.35;3.72;;;16.20;99.90;;;;;;5010440;28;20193;-75
2023/08/11 01:54:42;;;;;;;4.53;3.65;;;16.20;99.90;;;;;;5006529;28;20221;-76
2023/08/11 01:57:08;;;;;;;5.63;3.00;;;16.20;99.90;;;;;;5009077;28;20205;-75
2023/08/11 01:59:33;;;;;;;5.90;3.72;;;16.20;99.90;;;;;;5008259;28;20593;-74
2023/08/11 02:01:59;;;;;;;6.13;3.08;;;16.20;99.90;;;;;;5005363;28;20224;-76
2023/08/11 02:04:25;;;;;;;4.80;3.33;;;16.20;99.90;;;;;;5023484;28;20312;-75
2023/08/11 02:06:50;;;;;;;7.10;3.63;;;16.20;99.90;;;;;;5009279;28;20208;-75
2023/08/11 02:09:16;;;;;;;8.60;3.30;;;16.20;99.90;;;;;;5009433;28;20220;-75
2023/08/11 02:11:42;;;;;;;5.13;3.97;;;16.20;99.90;;;;;;5005354;28;20214;-76
2023/08/11 02:14:08;;;;;;;6.80;4.00;;;16.20;99.90;;;;;;5005341;28;20232;-76
2023/08/11 02:16:36;;;;;;;6.70;3.60;;;16.20;99.90;;;;;;5000970;28;20275;-75
2023/08/11 02:19:02;;;;;;;7.32;4.35;;;16.20;99.90;;;;;;5005264;28;20204;-76
2023/08/11 02:21:28;;;;;;;6.20;4.03;;;16.30;99.90;;;;;;5008805;28;20240;-77
2023/08/11 02:23:54;;;;;;;6.00;3.00;;;16.30;99.90;;;;;;5006019;28;20723;-75
2023/08/11 02:26:21;;;;;;;5.93;3.60;;;16.30;99.90;;;;;;5003849;28;20220;-77
2023/08/11 02:28:47;;;;;;;7.50;3.40;;;16.30;99.90;;;;;;5003086;28;20635;-77
2023/08/11 02:31:12;;;;;;;4.80;3.70;;;16.40;99.90;;;;;;5020642;28;20211;-75
2023/08/11 02:33:38;;;;;;;6.38;3.33;;;16.40;99.90;;;;;;5013174;28;20207;-75
2023/08/11 02:36:04;;;;;;;7.35;3.90;;;16.40;99.90;;;;;;5011521;28;20568;-76
2023/08/11 02:38:31;;;;;;;7.03;3.28;;;16.40;99.90;;;;;;5012143;28;20213;-76
2023/08/11 02:40:56;;;;;;;5.97;3.50;;;16.40;99.90;;;;;;5010202;28;20718;-77
2023/08/11 02:43:22;;;;;;;7.57;3.85;;;16.40;99.90;;;;;;5011599;28;20313;-73
2023/08/11 02:45:48;;;;;;;6.80;3.63;;;16.40;99.90;;;;;;5008745;28;20212;-76
2023/08/11 02:48:13;;;;;;;5.68;3.47;;;16.50;99.90;;;;;;5009928;28;20220;-76
2023/08/11 02:50:39;;;;;;;5.82;3.63;;;16.50;99.90;;;;;;5009022;28;20248;-76
2023/08/11 02:53:04;;;;;;;6.00;3.60;;;16.50;99.90;;;;;;5008917;28;20237;-75
2023/08/11 02:55:30;;;;;;;5.95;3.72;;;16.60;99.90;;;;;;5005463;28;20230;-73
2023/08/11 02:57:56;;;;;;;5.50;3.78;;;16.60;99.90;;;;;;5007549;28;20648;-75
2023/08/11 03:00:21;;;;;;;6.03;3.85;;;16.50;99.90;;;;;;5021750;28;20220;-75
2023/08/11 03:02:47;;;;;;;6.18;3.60;;;16.60;99.90;;;;;;5009798;28;20216;-76
2023/08/11 03:05:14;;;;;;;6.60;3.90;;;16.60;99.90;;;;;;5004702;28;20743;-76
2023/08/11 03:07:41;;;;;;;6.95;3.78;;;16.60;99.90;;;;;;5001529;28;20275;-76
2023/08/11 03:10:09;;;;;;;6.78;3.67;;;16.60;99.90;;;;;;5008018;28;20197;-76
2023/08/11 03:12:35;;;;;;;4.80;3.33;;;16.60;99.90;;;;;;5009237;28;20213;-76
2023/08/11 03:15:06;;;;;;;6.18;3.38;;;16.70;99.90;;;;;;5011809;28;20208;-77
2023/08/11 03:17:32;;;;;;;5.00;3.40;;;16.70;99.90;;;;;;5008035;28;20205;-76
2023/08/11 03:19:58;;;;;;;6.90;3.53;;;16.70;99.90;;;;;;5009926;28;20204;-76
2023/08/11 03:22:24;;;;;;;6.13;3.30;;;16.70;99.90;;;;;;5010786;28;20201;-76
2023/08/11 03:24:50;;;;;;;6.03;3.33;;;16.70;99.90;;;;;;5011387;28;20241;-75
2023/08/11 03:27:16;;;;;;;10.05;3.95;;;16.70;99.90;;;;;;5021860;28;20611;-76
2023/08/11 03:29:41;;;;;;;5.72;3.17;;;16.80;99.90;;;;;;5006793;28;20209;-76
2023/08/11 03:32:07;;;;;;;7.70;4.13;;;16.70;99.90;;;;;;5009233;28;20572;-75
2023/08/11 03:34:33;;;;;;;7.15;3.75;;;16.70;99.90;;;;;;5006182;28;20181;-75
2023/08/11 03:36:58;;;;;;;5.88;3.60;;;16.70;99.90;;;;;;5005657;28;20181;-75
2023/08/11 03:39:24;;;;;;;6.05;3.33;;;16.80;99.90;;;;;;5005763;28;20701;-76
2023/08/11 03:41:52;;;;;;;7.15;3.80;;;16.80;99.90;;;;;;5019424;28;20252;-76
2023/08/11 03:44:18;;;;;;;6.63;3.17;;;16.70;99.90;;;;;;5003533;28;20330;-76
2023/08/11 03:46:43;;;;;;;5.60;3.13;;;16.60;99.90;;;;;;5002380;28;20181;-74
2023/08/11 03:49:09;;;;;;;7.32;2.90;;;16.60;99.90;;;;;;5005055;28;20200;-75
2023/08/11 03:51:34;;;;;;;5.70;3.22;;;16.70;99.90;;;;;;5004355;28;20209;-75
2023/08/11 03:54:02;;;;;;;4.85;3.40;;;16.70;99.90;;;;;;5011152;28;20216;-75
2023/08/11 03:56:28;;;;;;;7.30;3.70;;;16.80;99.90;;;;;;5010529;28;20423;-76
2023/08/11 03:58:54;;;;;;;6.80;3.28;;;16.80;99.90;;;;;;5009491;28;20291;-76
2023/08/11 04:01:20;;;;;;;5.25;3.67;;;16.80;99.90;;;;;;5010162;28;20343;-76
2023/08/11 04:03:45;;;;;;;8.18;3.42;;;16.90;99.90;;;;;;5007875;28;20223;-75
2023/08/11 04:06:11;;;;;;;4.93;3.08;;;16.80;99.90;;;;;;5011807;28;20208;-76
2023/08/11 04:08:37;;;;;;;11.00;3.60;;;16.90;99.90;;;;;;5006882;28;20587;-77
2023/08/11 04:11:02;;;;;;;5.57;3.10;;;16.90;99.90;;;;;;5007089;28;20220;-75
2023/08/11 04:13:28;;;;;;;7.93;3.70;;;16.90;99.90;;;;;;5021584;28;20189;-76
2023/08/11 04:15:54;;;;;;;10.00;3.92;;;16.90;99.90;;;;;;5005280;28;20736;-76
2023/08/11 04:18:19;;;;;;;10.77;3.88;;;17.00;99.90;;;;;;5008597;28;20224;-76
2023/08/11 04:20:46;;;;;;;6.40;3.78;;;17.10;99.90;;;;;;5002262;28;20241;-75
2023/08/11 04:23:13;;;;;;;7.15;3.75;;;17.10;99.90;;;;;;5008211;28;20220;-76
2023/08/11 04:25:39;;;;;;;8.68;4.40;;;17.20;99.90;;;;;;5004343;28;20182;-76
2023/08/11 04:28:04;;;;;;;6.78;3.85;;;17.30;99.90;;;;;;5002410;28;20176;-76
2023/08/11 04:30:30;;;;;;;5.75;3.63;;;17.50;99.90;;;;;;5006462;28;20216;-76
2023/08/11 04:32:56;;;;;;;8.00;3.83;;;17.70;99.90;;;;;;5008259;28;20251;-76
2023/08/11 04:35:21;;;;;;;7.20;3.20;;;17.80;99.90;;;;;;5008557;28;20267;-73
2023/08/11 04:37:47;;;;;;;5.82;2.97;;;17.90;99.90;;;;;;5009279;28;20277;-75
2023/08/11 04:40:13;;;;;;;4.22;3.00;;;18.00;99.90;;;;;;5020750;28;20598;-76
2023/08/11 04:42:43;;;;;;;7.53;3.90;;;18.00;99.90;;;;;;5022845;28;20303;-76
2023/08/11 04:45:10;;;;;;;7.90;3.47;;;18.20;99.90;;;;;;5003486;28;20722;-76
2023/08/11 04:47:36;;;;;;;8.00;3.70;;;19.90;99.90;;;;;;5008420;28;20692;-76
2023/08/11 04:50:02;;;;;;;8.10;3.35;;;21.30;99.90;;;;;;5007966;28;20213;-76
2023/08/11 04:52:27;;;;;;;6.70;3.40;;;21.00;99.90;;;;;;5020545;28;20197;-77
2023/08/11 04:54:53;;;;;;;7.75;3.58;;;20.90;99.90;;;;;;5003792;28;20178;-77
2023/08/11 04:57:19;;;;;;;7.07;3.40;;;20.50;99.90;;;;;;5020337;28;20205;-76
2023/08/11 04:59:45;;;;;;;6.65;3.58;;;20.30;99.90;;;;;;5007464;28;20205;-75
2023/08/11 05:02:12;;;;;;;5.80;3.25;;;19.90;99.90;;;;;;5003905;28;20217;-76
2023/08/11 05:04:38;;;;;;;10.65;3.92;;;20.40;99.90;;;;;;5000731;28;20236;-76
2023/08/11 05:07:06;;;;;;;5.00;3.10;;;21.40;99.90;;;;;;5010388;28;20174;-76
2023/08/11 05:09:32;;;;;;;6.78;3.60;;;22.30;99.90;;;;;;5010225;28;20225;-76
2023/08/11 05:11:57;;;;;;;6.70;3.80;;;23.80;99.90;;;;;;5008634;28;20396;-75
2023/08/11 05:14:23;;;;;;;5.32;3.17;;;24.10;99.90;;;;;;5005117;28;20688;-75
2023/08/11 05:16:49;;;;;;;3.78;2.80;;;24.70;99.90;;;;;;5007243;28;20220;-76
2023/08/11 05:19:14;;;;;;;4.50;3.10;;;25.10;99.90;;;;;;5007328;28;20177;-77
2023/08/11 05:21:40;;;;;;;5.50;3.42;;;24.90;99.90;;;;;;5005670;28;20260;-76
2023/08/11 05:24:06;;;;;;;4.97;3.20;;;24.60;99.90;;;;;;5006710;28;20225;-76
2023/08/11 05:26:32;;;;;;;6.43;3.10;;;23.90;99.90;;;;;;5004143;28;20205;-76
2023/08/11 05:28:58;;;;;;;4.75;2.70;;;23.60;99.90;;;;;;5006170;28;20215;-76
2023/08/11 05:31:24;;;;;;;5.68;2.95;;;23.30;99.90;;;;;;5004873;28;20283;-76
2023/08/11 05:33:49;;;;;;;5.78;3.33;;;23.00;99.90;;;;;;4999953;28;20325;-76
2023/08/11 05:36:15;;;;;;;7.80;3.75;;;22.60;99.90;;;;;;5004001;28;20684;-76
2023/08/11 05:38:40;;;;;;;7.00;3.60;;;22.30;99.90;;;;;;5000751;28;20209;-76
2023/08/11 05:41:06;;;;;;;7.07;3.33;;;21.80;99.90;;;;;;5005015;28;20575;-76
2023/08/11 05:43:32;;;;;;;7.38;3.85;;;21.20;99.90;;;;;;5004967;28;20288;-75
2023/08/11 05:45:57;;;;;;;6.53;3.58;;;21.30;99.90;;;;;;5009618;28;20173;-76
2023/08/11 05:48:23;;;;;;;5.15;3.03;;;21.20;99.90;;;;;;5009791;28;20205;-74
2023/08/11 05:50:50;;;;;;;11.70;3.97;;;21.00;99.90;;;;;;5008090;28;20233;-77
2023/08/11 05:53:15;;;;;;;5.03;3.30;;;20.90;99.90;;;;;;5007768;28;20208;-76
2023/08/11 05:55:41;;;;;;;4.93;2.65;;;21.20;99.90;;;;;;5006441;28;20714;-76
2023/08/11 05:58:07;;;;;;;5.47;3.50;;;21.70;99.90;;;;;;5006129;28;20189;-76
2023/08/11 06:00:33;;;;;;;6.50;2.90;;;21.90;99.90;;;;;;5005734;28;20310;-77
2023/08/11 06:02:58;;;;;;;4.50;3.20;;;21.90;99.90;;;;;;5007522;28;20593;-77
2023/08/11 06:05:24;;;;;;;5.32;3.47;;;21.70;99.90;;;;;;5020545;28;20216;-75
2023/08/11 06:07:50;;;;;;;6.82;2.80;;;21.90;99.90;;;;;;5005881;28;20316;-76
2023/08/11 06:10:16;;;;;;;5.93;3.30;;;21.40;99.90;;;;;;5004379;28;20184;-76
2023/08/11 06:12:42;;;;;;;6.30;2.70;;;21.30;99.90;;;;;;5005228;28;20224;-77
2023/08/11 06:15:08;;;;;;;8.00;3.10;;;21.70;99.90;;;;;;5003201;28;20213;-74
2023/08/11 06:17:36;;;;;;;3.53;3.03;;;21.80;99.90;;;;;;5015857;28;20209;-76
2023/08/11 06:20:03;;;;;;;5.88;2.97;;;21.70;99.90;;;;;;5004929;28;20239;-76
2023/08/11 06:22:28;;;;;;;6.10;3.15;;;21.40;99.90;;;;;;5008574;28;20208;-76
2023/08/11 06:24:54;;;;;;;4.20;3.30;;;21.00;99.90;;;;;;5007709;28;20767;-76
2023/08/11 06:27:20;;;;;;;3.55;2.75;;;21.00;99.90;;;;;;5007682;28;20593;-75
2023/08/11 06:29:45;;;;;;;6.05;2.85;;;21.10;99.90;;;;;;5008670;28;20220;-76
2023/08/11 06:32:11;;;;;;;6.38;2.80;;;21.00;99.90;;;;;;5006595;28;20737;-78
2023/08/11 06:34:37;;;;;;;4.72;3.45;;;20.80;99.90;;;;;;5001569;28;20223;-76
2023/08/11 06:37:03;;;;;;;3.35;2.80;;;20.70;99.90;;;;;;5005425;28;20181;-76
2023/08/11 06:39:28;;;;;;;5.45;3.22;;;20.70;99.90;;;;;;5003982;28;20209;-77
2023/08/11 06:41:54;;;;;;;5.32;3.22;;;20.70;99.90;;;;;;5004857;28;20236;-73
2023/08/11 06:44:19;;;;;;;3.90;2.97;;;20.60;99.90;;;;;;5008570;28;20231;-75
2023/08/11 06:46:45;;;;;;;5.50;3.40;;;20.40;99.90;;;;;;5000540;28;20204;-75
2023/08/11 06:49:11;;;;;;;5.07;3.28;;;20.50;99.90;;;;;;5010194;28;20682;-77
2023/08/11 06:51:37;;;;;;;6.35;3.10;;;20.50;99.90;;;;;;5004259;28;20776;-76
2023/08/11 06:54:03;;;;;;;7.55;3.00;;;20.50;99.90;;;;;;4998138;28;20360;-76
2023/08/11 06:56:28;;;;;;;4.68;3.22;;;20.40;99.90;;;;;;5006489;28;20216;-77
2023/08/11 06:58:54;;;;;;;4.93;2.85;;;20.40;99.90;;;;;;5019545;28;20226;-77
2023/08/11 07:01:20;;;;;;;4.60;2.60;;;20.30;99.90;;;;;;5008989;28;20193;-75
2023/08/11 07:03:45;;;;;;;6.00;2.78;;;20.30;99.90;;;;;;5002356;28;20287;-77
2023/08/11 07:06:11;;;;;;;5.97;3.40;;;20.10;99.90;;;;;;5008961;28;20213;-77
2023/08/11 07:08:37;;;;;;;6.63;3.58;;;20.30;99.90;;;;;;5008125;28;20296;-77
2023/08/11 07:11:02;;;;;;;5.90;2.90;;;20.20;99.90;;;;;;5022490;28;20239;-77
2023/08/11 07:13:28;;;;;;;5.50;2.70;;;20.30;99.90;;;;;;5011239;28;20177;-77
2023/08/11 07:15:57;;;;;;;4.95;2.55;;;20.30;99.90;;;;;;5006654;28;20596;-76
2023/08/11 07:18:24;;;;;;;5.72;2.70;;;20.50;99.90;;;;;;5007555;28;20280;-77
2023/08/11 07:20:49;;;;;;;4.32;2.58;;;20.80;99.90;;;;;;5004156;28;20299;-77
2023/08/11 07:23:16;;;;;;;4.75;2.60;;;21.10;99.90;;;;;;5008281;28;20303;-76
2023/08/11 07:25:42;;;;;;;6.20;2.47;;;21.40;99.90;;;;;;5005068;28;20219;-76
2023/08/11 07:28:08;;;;;;;5.57;2.40;;;22.00;99.90;;;;;;5011006;28;20181;-76
2023/08/11 07:30:33;;;;;;;3.90;2.42;;;22.30;99.90;;;;;;5001574;28;20584;-77
2023/08/11 07:33:02;;;;;;;7.25;2.20;;;22.90;99.90;;;;;;5007081;28;20734;-75
2023/08/11 07:35:28;;;;;;;5.30;2.28;;;23.50;99.90;;;;;;5008558;28;20209;-76
2023/08/11 07:37:53;;;;;;;2.95;2.10;;;24.10;99.90;;;;;;5011197;28;20304;-76
2023/08/11 07:40:19;;;;;;;6.38;2.47;;;24.90;99.90;;;;;;5010331;28;20788;-78
2023/08/11 07:42:45;;;;;;;2.67;1.95;;;25.10;99.90;;;;;;5007465;28;20263;-77
2023/08/11 07:45:10;;;;;;;3.53;1.85;;;25.50;99.90;;;;;;5008370;28;20214;-76
2023/08/11 07:47:36;;;;;;;5.03;1.77;;;25.90;99.90;;;;;;5007714;28;20726;-77
2023/08/11 07:50:03;;;;;;;5.28;2.03;;;26.10;99.90;;;;;;5007441;28;20213;-76
2023/08/11 07:52:28;;;;;;;8.38;2.05;;;26.90;99.90;;;;;;5022386;28;20676;-77
2023/08/11 07:54:54;;;;;;;4.40;1.75;;;27.40;99.90;;;;;;5005584;28;20181;-76
2023/08/11 07:57:19;;;;;;;5.45;2.03;;;27.80;99.90;;;;;;5005523;28;20347;-77
2023/08/11 07:59:45;;;;;;;5.05;2.40;;;28.50;99.90;;;;;;5004833;28;20217;-77
2023/08/11 08:02:13;;;;;;;20.73;2.92;;;28.60;99.90;;;;;;5000775;28;20296;-76
2023/08/11 08:04:38;;;;;;;4.10;1.90;;;29.40;99.90;;;;;;5006795;28;20592;-77
2023/08/11 08:07:05;;;;;;;4.28;1.58;;;29.80;99.90;;;;;;5003906;28;20219;-76
2023/08/11 08:09:33;;;;;;;4.03;1.77;;;29.60;99.90;;;;;;5008800;28;20776;-74
2023/08/11 08:12:00;;;;;;;4.32;1.80;;;30.10;99.90;;;;;;5006149;28;20216;-76
2023/08/11 08:14:26;;;;;;;5.07;2.08;;;31.20;98.70;;;;;;5005933;28;20756;-77
2023/08/11 08:16:52;;;;;;;3.45;1.80;;;31.80;97.00;;;;;;4998169;28;20260;-75
2023/08/11 08:19:20;;;;;;;2.92;1.80;;;32.30;95.10;;;;;;5010041;28;20192;-77
2023/08/11 08:21:46;;;;;;;5.57;1.90;;;32.40;93.90;;;;;;5006434;28;20223;-77
2023/08/11 08:24:14;;;;;;;9.07;2.10;;;32.60;92.90;;;;;;5002439;28;20225;-75
2023/08/11 08:26:40;;;;;;;6.97;2.13;;;32.80;92.10;;;;;;5018785;28;20863;-75
2023/08/11 08:29:06;;;;;;;4.72;2.13;;;32.90;91.50;;;;;;4999943;28;20564;-74
2023/08/11 08:31:32;;;;;;;3.35;1.98;;;32.70;91.40;;;;;;5006449;28;20283;-75
2023/08/11 08:33:59;;;;;;;6.45;2.05;;;32.80;90.70;;;;;;5003713;28;20188;-74
2023/08/11 08:36:24;;;;;;;3.28;2.40;;;33.00;88.40;;;;;;5003492;28;20212;-73
2023/08/11 08:38:50;;;;;;;4.93;2.72;;;33.00;88.80;;;;;;5004052;28;20208;-75
2023/08/11 08:41:20;;;;;;;4.40;2.42;;;33.40;87.70;;;;;;4999693;28;20232;-73
2023/08/11 08:43:51;;;;;;;4.45;2.33;;;33.60;85.70;;;;;;5002343;28;20212;-73
2023/08/11 08:46:20;;;;;;;7.68;2.70;;;33.70;85.00;;;;;;5018457;28;20216;-74
2023/08/11 08:48:56;;;;;;;5.40;2.85;;;33.10;85.70;;;;;;5003013;28;20205;-75
2023/08/11 08:51:22;;;;;;;9.52;5.47;;;33.00;84.60;;;;;;5007320;28;20208;-71
2023/08/11 08:53:48;;;;;;;8.98;4.78;;;32.90;86.10;;;;;;5007172;28;20624;-75
2023/08/11 08:56:14;;;;;;;4.32;2.83;;;33.70;83.90;;;;;;5004075;28;20769;-75
2023/08/11 08:58:41;;;;;;;11.00;4.22;;;33.60;84.80;;;;;;5004550;28;20202;-74
2023/08/11 09:01:09;;;;;;;4.47;2.53;;;33.50;85.20;;;;;;5006695;28;20192;-72
2023/08/11 09:03:36;;;;;;;6.18;2.60;;;33.50;84.80;;;;;;5005604;28;20279;-76
2023/08/11 09:06:05;;;;;;;5.65;2.00;;;33.30;83.70;;;;;;5002305;28;20215;-75
2023/08/11 09:08:38;;;;;;;6.30;3.00;;;33.30;83.70;;;;;;5000652;28;20204;-74
2023/08/11 09:11:04;;;;;;;12.27;7.05;;;32.70;84.50;;;;;;4999307;28;20271;-74
2023/08/11 09:13:31;;;;;;;7.93;3.42;;;32.90;84.80;;;;;;5005424;28;20189;-75
2023/08/11 09:15:57;;;;;;;4.75;2.60;;;32.50;85.90;;;;;;4998261;28;20695;-74
2023/08/11 09:18:23;;;;;;;7.93;5.07;;;32.70;86.00;;;;;;5005311;28;20208;-73
2023/08/11 09:20:49;;;;;;;8.88;5.80;;;32.50;86.70;;;;;;5004954;28;20213;-74
2023/08/11 09:23:18;;;;;;;4.70;1.83;;;32.50;86.70;;;;;;5003734;28;20220;-77
2023/08/11 09:25:45;;;;;;;3.60;1.50;;;32.50;86.20;;;;;;5007732;28;20235;-74
2023/08/11 09:28:11;;;;;;;1.83;1.38;;;32.20;87.20;;;;;;5010133;28;20180;-74
2023/08/11 09:30:37;;;;;;;4.45;2.33;;;32.10;86.60;;;;;;5008326;28;20205;-74
2023/08/11 09:33:03;;;;;;;5.30;1.60;;;31.70;88.20;;;;;;5008530;28;20212;-74
2023/08/11 09:35:29;;;;;;;5.38;3.08;;;31.10;89.50;;;;;;5007178;28;20279;-74
2023/08/11 09:37:56;;;;;;;4.35;2.35;;;30.70;90.20;;;;;;5013089;28;20586;-75
2023/08/11 09:40:22;;;;;;;5.78;2.25;;;30.10;91.40;;;;;;5008673;28;20181;-72
2023/08/11 09:42:48;;;;;;;3.75;2.00;;;29.80;91.90;;;;;;5011183;28;20213;-74
2023/08/11 09:45:14;;;;;;;1.55;1.42;;;29.60;92.10;;;;;;5005192;28;20208;-74
2023/08/11 09:47:40;;;;;;;3.35;1.40;;;30.10;92.30;;;;;;5009198;28;20216;-74
2023/08/11 09:50:07;;;;;;;3.25;1.27;;;30.50;91.90;;;;;;5000737;28;20298;-74
2023/08/11 09:52:35;;;;;;;4.32;1.10;;;30.00;91.60;;;;;;5008382;28;20192;-75
2023/08/11 09:55:06;;;;;;;3.50;1.63;;;29.50;92.50;;;;;;5004931;28;20197;-75
2023/08/11 09:57:34;;;;;;;2.47;1.25;;;29.10;93.00;;;;;;5005374;28;20687;-75
2023/08/11 10:00:00;;;;;;;2.00;1.48;;;28.70;93.50;;;;;;5006206;28;20413;-75
2023/08/11 10:02:30;;;;;;;2.90;1.17;;;28.20;94.10;;;;;;5008509;28;20343;-74
2023/08/11 10:04:58;;;;;;;1.70;1.10;;;27.80;95.40;;;;;;5008651;28;20299;-75
2023/08/11 10:07:34;;;;;;;3.60;1.15;;;27.70;95.60;;;;;;5005889;28;20180;-74
2023/08/11 10:10:03;;;;;;;2.25;1.00;;;27.60;95.50;;;;;;5004460;28;20232;-75
2023/08/11 10:12:30;;;;;;;2.40;1.00;;;27.60;96.00;;;;;;5007640;28;20324;-75
2023/08/11 10:14:56;;;;;;;3.90;2.00;;;27.90;96.00;;;;;;5008328;28;20229;-75
2023/08/11 10:17:23;;;;;;;4.38;2.58;;;28.30;96.20;;;;;;5004106;28;20209;-72
2023/08/11 10:19:50;;;;;;;1.73;1.00;;;28.60;95.50;;;;;;5006472;28;20263;-75
2023/08/11 10:22:16;;;;;;;2.15;0.90;;;28.90;95.30;;;;;;5005447;28;20285;-72
2023/08/11 10:24:43;;;;;;;3.35;1.00;;;28.70;95.00;;;;;;5003117;28;20625;-74
2023/08/11 10:27:09;;;;;;;2.28;1.30;;;28.40;95.50;;;;;;5001697;28;20209;-74
2023/08/11 10:29:39;;;;;;;1.75;1.25;;;28.30;95.50;;;;;;5002059;28;20210;-73
2023/08/11 10:32:05;;;;;;;1.88;1.13;;;28.00;95.80;;;;;;5000405;28;20236;-75
2023/08/11 10:34:32;;;;;;;2.15;0.93;;;28.40;96.10;;;;;;5000955;28;20178;-75
2023/08/11 10:36:58;;;;;;;3.28;1.20;;;28.30;96.20;;;;;;5006379;28;20694;-75
2023/08/11 10:39:25;;;;;;;3.30;1.23;;;28.40;96.00;;;;;;5009252;28;20247;-75
2023/08/11 10:41:51;;;;;;;2.13;1.23;;;28.20;96.30;;;;;;5010858;28;20280;-75
2023/08/11 10:44:20;;;;;;;3.80;1.40;;;28.20;97.10;;;;;;5012497;28;20220;-75
2023/08/11 10:46:48;;;;;;;2.05;1.30;;;28.30;97.20;;;;;;5023866;28;20185;-75
2023/08/11 10:49:13;;;;;;;3.78;1.60;;;28.40;97.00;;;;;;5011845;28;20219;-73
2023/08/11 10:51:40;;;;;;;4.60;1.58;;;28.70;96.80;;;;;;5006860;28;20695;-76
2023/08/11 10:54:06;;;;;;;2.10;1.40;;;29.10;96.60;;;;;;5019714;28;20343;-75
2023/08/11 10:56:37;;;;;;;3.72;2.13;;;29.20;96.30;;;;;;5020793;28;20213;-76
2023/08/11 10:59:06;;;;;;;2.75;1.58;;;29.00;96.30;;;;;;5017531;28;20209;-75
2023/08/11 11:01:36;;;;;;;6.10;2.20;;;28.80;96.70;;;;;;5012558;28;20224;-76
2023/08/11 11:04:03;;;;;;;6.88;2.45;;;28.60;98.60;;;;;;5015646;28;20212;-75
2023/08/11 11:06:30;;;;;;;5.47;2.17;;;28.50;99.90;;;;;;5010578;28;20260;-76
2023/08/11 11:08:56;;;;;;;4.53;1.73;;;28.30;99.00;;;;;;5014177;28;20725;-74
2023/08/11 11:11:21;;;;;;;2.65;1.35;;;28.10;99.90;;;;;;5007020;28;20224;-73
2023/08/11 11:13:47;;;;;;;1.70;0.90;;;27.90;98.90;;;;;;5011016;28;20220;-77
2023/08/11 11:16:13;;;;;;;1.88;1.00;;;27.70;98.80;;;;;;5036988;28;20188;-76
2023/08/11 11:18:42;;;;;;;1.67;0.95;;;27.70;99.40;;;;;;5024759;28;20209;-78
2023/08/11 11:21:11;;;;;;;12.05;8.82;;;27.90;99.30;;;;;;5023197;28;20221;-79
2023/08/11 11:23:36;;;;;;;3.03;1.95;;;27.90;99.00;;;;;;5020393;28;20208;-79
2023/08/11 11:26:02;;;;;;;5.15;2.45;;;27.50;98.90;;;;;;5012325;28;20727;-77
2023/08/11 11:28:28;;;;;;;2.90;1.98;;;27.40;99.90;;;;;;5005080;28;20180;-77
2023/08/11 11:30:54;;;;;;;2.67;1.55;;;27.20;99.90;;;;;;5002307;28;20258;-77
2023/08/11 11:33:22;;;;;;;2.60;1.50;;;27.00;99.90;;;;;;5004628;28;20217;-76
2023/08/11 11:35:48;;;;;;;2.78;1.10;;;27.10;99.90;;;;;;5022254;28;20205;-76
2023/08/11 11:38:14;;;;;;;1.48;1.10;;;27.00;99.90;;;;;;5004143;28;20631;-77
2023/08/11 11:40:40;;;;;;;2.90;1.20;;;26.10;99.90;;;;;;5020539;28;20201;-80
2023/08/11 11:43:06;;;;;;;8.07;5.95;;;25.70;99.90;;;;;;5008507;28;20299;-78
2023/08/11 11:45:32;;;;;;;2.65;1.27;;;26.10;99.90;;;;;;5009831;28;20698;-78
2023/08/11 11:47:58;;;;;;;2.90;1.85;;;25.80;99.90;;;;;;5003112;28;20226;-77
2023/08/11 11:50:25;;;;;;;3.90;1.02;;;26.20;99.90;;;;;;5021306;28;20224;-83
2023/08/11 11:52:53;;;;;;;1.38;1.10;;;26.20;99.90;;;;;;5005625;28;20505;-76
2023/08/11 11:55:19;;;;;;;3.10;1.40;;;26.40;99.90;;;;;;5020816;28;20272;-77
2023/08/11 11:57:44;;;;;;;1.80;1.30;;;26.40;99.90;;;;;;5004341;28;20743;-78
2023/08/11 12:00:16;;;;;;;1.75;1.38;;;26.00;99.90;;;;;;5007342;28;20205;-77
2023/08/11 12:02:43;;;;;;;5.30;1.60;;;26.10;99.90;;;;;;5020315;28;20271;-76
2023/08/11 12:05:09;;;;;;;5.55;3.22;;;26.20;99.90;;;;;;5007741;28;20205;-77
2023/08/11 12:07:36;;;;;;;3.55;1.60;;;26.40;99.90;;;;;;5007444;28;20180;-78
2023/08/11 12:10:06;;;;;;;3.15;1.42;;;26.40;99.90;;;;;;5003824;28;20237;-74
2023/08/11 12:12:32;;;;;;;2.05;1.25;;;26.40;99.90;;;;;;5011233;28;20342;-77
2023/08/11 12:15:06;;;;;;;3.90;1.73;;;26.50;99.90;;;;;;5009260;28;20220;-76
2023/08/11 12:17:33;;;;;;;5.03;2.20;;;26.50;99.90;;;;;;5018981;28;20239;-77
2023/08/11 12:20:04;;;;;;;5.30;2.20;;;26.40;99.90;;;;;;5018961;28;20213;-79
2023/08/11 12:22:30;;;;;;;2.85;1.80;;;26.30;99.90;;;;;;5013372;28;20224;-77
2023/08/11 12:24:55;;;;;;;1.77;1.35;;;26.40;99.90;;;;;;5012435;28;20634;-78
2023/08/11 12:27:21;;;;;;;1.92;1.17;;;26.40;99.90;;;;;;5012862;28;20209;-76
2023/08/11 12:29:47;;;;;;;4.28;1.20;;;26.10;99.90;;;;;;5009974;28;20204;-77
2023/08/11 12:32:13;;;;;;;3.03;0.90;;;26.30;99.90;;;;;;5007463;28;20215;-77
2023/08/11 12:34:38;;;;;;;2.13;1.00;;;26.30;99.90;;;;;;5007099;28;20185;-77
2023/08/11 12:37:04;;;;;;;1.13;0.60;;;26.10;99.90;;;;;;5008464;28;20181;-77
2023/08/11 12:39:31;;;;;;;2.42;1.00;;;25.90;99.90;;;;;;5008868;28;20742;-75
2023/08/11 12:41:57;;;;;;;1.65;0.80;;;25.70;99.90;;;;;;5016357;28;20217;-77